sensor_id;sensor_type;location;lat;lon;timestamp;P1;durP1;ratioP1;P2;durP2;ratioP2
76228;SDS011;65021;53.174;18.160;2023-10-31T00:00:04;22.20;;;11.50;;
76228;SDS011;65021;53.174;18.160;2023-10-31T00:02:32;24.90;;;13.90;;
76228;SDS011;65021;53.174;18.160;2023-10-31T00:04:59;24.90;;;11.30;;
76228;SDS011;65021;53.174;18.160;2023-10-31T00:07:25;29.40;;;15.30;;
76228;SDS011;65021;53.174;18.160;2023-10-31T00:09:52;22.50;;;11.80;;
76228;SDS011;65021;53.174;18.160;2023-10-31T00:12:18;28.40;;;14.40;;
76228;SDS011;65021;53.174;18.160;2023-10-31T00:14:45;20.30;;;10.20;;
76228;SDS011;65021;53.174;18.160;2023-10-31T00:17:12;23.90;;;11.90;;
76228;SDS011;65021;53.174;18.160;2023-10-31T00:19:38;21.00;;;11.40;;
76228;SDS011;65021;53.174;18.160;2023-10-31T00:22:05;23.30;;;12.70;;
76228;SDS011;65021;53.174;18.160;2023-10-31T00:24:31;25.00;;;11.80;;
76228;SDS011;65021;53.174;18.160;2023-10-31T00:26:58;20.50;;;10.10;;
76228;SDS011;65021;53.174;18.160;2023-10-31T00:29:25;24.30;;;13.60;;
76228;SDS011;65021;53.174;18.160;2023-10-31T00:31:51;24.50;;;12.50;;
76228;SDS011;65021;53.174;18.160;2023-10-31T00:34:18;19.90;;;10.60;;
76228;SDS011;65021;53.174;18.160;2023-10-31T00:36:45;21.70;;;12.50;;
76228;SDS011;65021;53.174;18.160;2023-10-31T00:39:11;20.40;;;11.60;;
76228;SDS011;65021;53.174;18.160;2023-10-31T00:41:39;22.90;;;11.70;;
76228;SDS011;65021;53.174;18.160;2023-10-31T00:44:10;22.90;;;11.90;;
76228;SDS011;65021;53.174;18.160;2023-10-31T00:46:37;23.10;;;12.80;;
76228;SDS011;65021;53.174;18.160;2023-10-31T00:49:03;20.50;;;11.40;;
76228;SDS011;65021;53.174;18.160;2023-10-31T00:51:30;22.50;;;12.70;;
76228;SDS011;65021;53.174;18.160;2023-10-31T00:53:56;21.50;;;12.30;;
76228;SDS011;65021;53.174;18.160;2023-10-31T00:56:23;22.10;;;10.30;;
76228;SDS011;65021;53.174;18.160;2023-10-31T00:58:50;26.90;;;14.30;;
76228;SDS011;65021;53.174;18.160;2023-10-31T01:01:16;25.60;;;11.90;;
76228;SDS011;65021;53.174;18.160;2023-10-31T01:03:45;19.20;;;11.40;;
76228;SDS011;65021;53.174;18.160;2023-10-31T01:06:15;24.40;;;12.10;;
76228;SDS011;65021;53.174;18.160;2023-10-31T01:08:42;20.00;;;11.90;;
76228;SDS011;65021;53.174;18.160;2023-10-31T01:11:08;17.30;;;9.80;;
76228;SDS011;65021;53.174;18.160;2023-10-31T01:13:35;19.90;;;10.50;;
76228;SDS011;65021;53.174;18.160;2023-10-31T01:16:01;22.90;;;11.80;;
76228;SDS011;65021;53.174;18.160;2023-10-31T01:18:29;18.20;;;9.80;;
76228;SDS011;65021;53.174;18.160;2023-10-31T01:20:55;21.60;;;10.00;;
76228;SDS011;65021;53.174;18.160;2023-10-31T01:23:22;22.50;;;11.00;;
76228;SDS011;65021;53.174;18.160;2023-10-31T01:25:49;21.10;;;10.20;;
76228;SDS011;65021;53.174;18.160;2023-10-31T01:28:15;22.20;;;12.70;;
76228;SDS011;65021;53.174;18.160;2023-10-31T01:30:42;21.60;;;11.40;;
76228;SDS011;65021;53.174;18.160;2023-10-31T01:33:09;24.90;;;12.20;;
76228;SDS011;65021;53.174;18.160;2023-10-31T01:35:35;24.50;;;12.40;;
76228;SDS011;65021;53.174;18.160;2023-10-31T01:38:02;20.20;;;11.50;;
76228;SDS011;65021;53.174;18.160;2023-10-31T01:40:29;20.30;;;11.70;;
76228;SDS011;65021;53.174;18.160;2023-10-31T01:42:56;25.80;;;12.80;;
76228;SDS011;65021;53.174;18.160;2023-10-31T01:45:23;25.80;;;13.10;;
76228;SDS011;65021;53.174;18.160;2023-10-31T01:47:50;23.00;;;12.60;;
76228;SDS011;65021;53.174;18.160;2023-10-31T01:50:17;26.30;;;13.40;;
76228;SDS011;65021;53.174;18.160;2023-10-31T01:52:44;25.90;;;12.40;;
76228;SDS011;65021;53.174;18.160;2023-10-31T01:55:12;19.50;;;11.60;;
76228;SDS011;65021;53.174;18.160;2023-10-31T01:57:40;20.70;;;11.00;;
76228;SDS011;65021;53.174;18.160;2023-10-31T02:00:07;18.50;;;9.80;;
76228;SDS011;65021;53.174;18.160;2023-10-31T02:02:34;23.70;;;13.60;;
76228;SDS011;65021;53.174;18.160;2023-10-31T02:05:02;20.90;;;11.40;;
76228;SDS011;65021;53.174;18.160;2023-10-31T02:07:29;20.40;;;11.50;;
76228;SDS011;65021;53.174;18.160;2023-10-31T02:09:56;22.10;;;11.30;;
76228;SDS011;65021;53.174;18.160;2023-10-31T02:12:35;21.90;;;12.70;;
76228;SDS011;65021;53.174;18.160;2023-10-31T02:15:03;19.80;;;12.30;;
76228;SDS011;65021;53.174;18.160;2023-10-31T02:17:31;22.10;;;11.10;;
76228;SDS011;65021;53.174;18.160;2023-10-31T02:19:59;17.60;;;10.10;;
76228;SDS011;65021;53.174;18.160;2023-10-31T02:22:28;18.90;;;9.70;;
76228;SDS011;65021;53.174;18.160;2023-10-31T02:24:59;19.00;;;11.20;;
76228;SDS011;65021;53.174;18.160;2023-10-31T02:27:26;21.20;;;10.40;;
76228;SDS011;65021;53.174;18.160;2023-10-31T02:32:57;17.20;;;10.80;;
76228;SDS011;65021;53.174;18.160;2023-10-31T02:35:23;20.80;;;10.30;;
76228;SDS011;65021;53.174;18.160;2023-10-31T02:37:50;16.10;;;8.20;;
76228;SDS011;65021;53.174;18.160;2023-10-31T02:40:17;20.20;;;10.30;;
76228;SDS011;65021;53.174;18.160;2023-10-31T02:42:43;18.50;;;9.50;;
76228;SDS011;65021;53.174;18.160;2023-10-31T02:45:10;17.70;;;9.40;;
76228;SDS011;65021;53.174;18.160;2023-10-31T02:47:37;16.20;;;8.90;;
76228;SDS011;65021;53.174;18.160;2023-10-31T02:50:04;16.10;;;9.20;;
76228;SDS011;65021;53.174;18.160;2023-10-31T02:52:32;16.00;;;9.20;;
76228;SDS011;65021;53.174;18.160;2023-10-31T02:54:58;18.00;;;8.90;;
76228;SDS011;65021;53.174;18.160;2023-10-31T02:57:25;17.40;;;8.00;;
76228;SDS011;65021;53.174;18.160;2023-10-31T02:59:52;14.60;;;8.70;;
76228;SDS011;65021;53.174;18.160;2023-10-31T03:02:18;18.40;;;9.30;;
76228;SDS011;65021;53.174;18.160;2023-10-31T03:04:45;13.70;;;7.50;;
76228;SDS011;65021;53.174;18.160;2023-10-31T03:07:11;12.10;;;7.30;;
76228;SDS011;65021;53.174;18.160;2023-10-31T03:09:38;16.20;;;8.20;;
76228;SDS011;65021;53.174;18.160;2023-10-31T03:12:05;12.00;;;7.60;;
76228;SDS011;65021;53.174;18.160;2023-10-31T03:14:31;15.80;;;8.40;;
76228;SDS011;65021;53.174;18.160;2023-10-31T03:16:58;13.70;;;6.90;;
76228;SDS011;65021;53.174;18.160;2023-10-31T03:19:25;13.90;;;7.50;;
76228;SDS011;65021;53.174;18.160;2023-10-31T03:21:51;16.00;;;6.90;;
76228;SDS011;65021;53.174;18.160;2023-10-31T03:24:18;14.40;;;7.40;;
76228;SDS011;65021;53.174;18.160;2023-10-31T03:26:44;14.60;;;8.00;;
76228;SDS011;65021;53.174;18.160;2023-10-31T03:29:11;12.30;;;7.20;;
76228;SDS011;65021;53.174;18.160;2023-10-31T03:31:37;13.50;;;7.30;;
76228;SDS011;65021;53.174;18.160;2023-10-31T03:34:04;14.20;;;8.60;;
76228;SDS011;65021;53.174;18.160;2023-10-31T03:36:30;14.10;;;7.00;;
76228;SDS011;65021;53.174;18.160;2023-10-31T03:38:57;14.30;;;7.50;;
76228;SDS011;65021;53.174;18.160;2023-10-31T03:41:23;13.30;;;6.80;;
76228;SDS011;65021;53.174;18.160;2023-10-31T03:43:50;15.40;;;7.60;;
76228;SDS011;65021;53.174;18.160;2023-10-31T03:46:17;11.00;;;5.90;;
76228;SDS011;65021;53.174;18.160;2023-10-31T03:48:43;13.50;;;5.90;;
76228;SDS011;65021;53.174;18.160;2023-10-31T03:51:10;10.50;;;6.00;;
76228;SDS011;65021;53.174;18.160;2023-10-31T03:53:36;11.10;;;5.80;;
76228;SDS011;65021;53.174;18.160;2023-10-31T03:56:03;12.20;;;6.60;;
76228;SDS011;65021;53.174;18.160;2023-10-31T03:58:33;12.40;;;6.50;;
76228;SDS011;65021;53.174;18.160;2023-10-31T04:01:00;11.90;;;5.90;;
76228;SDS011;65021;53.174;18.160;2023-10-31T04:03:28;12.20;;;6.90;;
76228;SDS011;65021;53.174;18.160;2023-10-31T04:05:55;10.20;;;5.50;;
76228;SDS011;65021;53.174;18.160;2023-10-31T04:08:21;11.60;;;6.50;;
76228;SDS011;65021;53.174;18.160;2023-10-31T04:10:48;13.70;;;6.60;;
76228;SDS011;65021;53.174;18.160;2023-10-31T04:13:14;12.80;;;6.10;;
76228;SDS011;65021;53.174;18.160;2023-10-31T04:15:41;10.50;;;5.80;;
76228;SDS011;65021;53.174;18.160;2023-10-31T04:18:07;11.20;;;5.80;;
76228;SDS011;65021;53.174;18.160;2023-10-31T04:20:34;13.20;;;6.60;;
76228;SDS011;65021;53.174;18.160;2023-10-31T04:23:01;16.00;;;5.30;;
76228;SDS011;65021;53.174;18.160;2023-10-31T04:25:27;11.40;;;5.90;;
76228;SDS011;65021;53.174;18.160;2023-10-31T04:27:55;10.70;;;5.50;;
76228;SDS011;65021;53.174;18.160;2023-10-31T04:30:22;12.30;;;6.40;;
76228;SDS011;65021;53.174;18.160;2023-10-31T04:32:48;15.50;;;6.60;;
76228;SDS011;65021;53.174;18.160;2023-10-31T04:35:15;11.00;;;5.60;;
76228;SDS011;65021;53.174;18.160;2023-10-31T04:37:42;12.00;;;5.80;;
76228;SDS011;65021;53.174;18.160;2023-10-31T04:40:09;13.70;;;6.40;;
76228;SDS011;65021;53.174;18.160;2023-10-31T04:42:38;12.30;;;5.20;;
76228;SDS011;65021;53.174;18.160;2023-10-31T04:45:06;11.10;;;5.90;;
76228;SDS011;65021;53.174;18.160;2023-10-31T04:47:34;9.90;;;4.80;;
76228;SDS011;65021;53.174;18.160;2023-10-31T04:50:00;15.40;;;6.10;;
76228;SDS011;65021;53.174;18.160;2023-10-31T04:52:27;12.90;;;6.30;;
76228;SDS011;65021;53.174;18.160;2023-10-31T04:54:54;11.30;;;6.00;;
76228;SDS011;65021;53.174;18.160;2023-10-31T04:57:20;9.90;;;5.60;;
76228;SDS011;65021;53.174;18.160;2023-10-31T04:59:47;9.70;;;5.20;;
76228;SDS011;65021;53.174;18.160;2023-10-31T05:02:13;10.40;;;5.20;;
76228;SDS011;65021;53.174;18.160;2023-10-31T05:04:41;11.70;;;5.60;;
76228;SDS011;65021;53.174;18.160;2023-10-31T05:07:08;12.70;;;6.70;;
76228;SDS011;65021;53.174;18.160;2023-10-31T05:09:34;10.80;;;6.10;;
76228;SDS011;65021;53.174;18.160;2023-10-31T05:12:01;14.10;;;5.70;;
76228;SDS011;65021;53.174;18.160;2023-10-31T05:14:28;15.80;;;6.40;;
76228;SDS011;65021;53.174;18.160;2023-10-31T05:16:55;10.30;;;5.70;;
76228;SDS011;65021;53.174;18.160;2023-10-31T05:19:21;11.80;;;5.80;;
76228;SDS011;65021;53.174;18.160;2023-10-31T05:21:48;12.40;;;5.70;;
76228;SDS011;65021;53.174;18.160;2023-10-31T05:24:14;10.00;;;5.80;;
76228;SDS011;65021;53.174;18.160;2023-10-31T05:26:41;11.80;;;6.90;;
76228;SDS011;65021;53.174;18.160;2023-10-31T05:29:10;13.60;;;6.80;;
76228;SDS011;65021;53.174;18.160;2023-10-31T05:31:37;13.10;;;5.70;;
76228;SDS011;65021;53.174;18.160;2023-10-31T05:34:04;10.40;;;6.20;;
76228;SDS011;65021;53.174;18.160;2023-10-31T05:36:31;12.90;;;6.60;;
76228;SDS011;65021;53.174;18.160;2023-10-31T05:38:58;13.60;;;6.40;;
76228;SDS011;65021;53.174;18.160;2023-10-31T05:41:24;10.20;;;5.70;;
76228;SDS011;65021;53.174;18.160;2023-10-31T05:43:51;11.70;;;5.10;;
76228;SDS011;65021;53.174;18.160;2023-10-31T05:46:18;11.00;;;5.20;;
76228;SDS011;65021;53.174;18.160;2023-10-31T05:48:45;12.40;;;5.40;;
76228;SDS011;65021;53.174;18.160;2023-10-31T05:53:40;12.70;;;6.80;;
76228;SDS011;65021;53.174;18.160;2023-10-31T05:56:08;12.20;;;5.40;;
76228;SDS011;65021;53.174;18.160;2023-10-31T05:58:36;11.10;;;5.70;;
76228;SDS011;65021;53.174;18.160;2023-10-31T06:01:03;10.60;;;6.10;;
76228;SDS011;65021;53.174;18.160;2023-10-31T06:03:31;10.40;;;5.50;;
76228;SDS011;65021;53.174;18.160;2023-10-31T06:05:58;10.50;;;5.30;;
76228;SDS011;65021;53.174;18.160;2023-10-31T06:08:25;12.70;;;6.20;;
76228;SDS011;65021;53.174;18.160;2023-10-31T06:10:55;10.70;;;5.80;;
76228;SDS011;65021;53.174;18.160;2023-10-31T06:13:23;12.50;;;5.60;;
76228;SDS011;65021;53.174;18.160;2023-10-31T06:15:55;12.50;;;5.20;;
76228;SDS011;65021;53.174;18.160;2023-10-31T06:18:22;12.10;;;5.90;;
76228;SDS011;65021;53.174;18.160;2023-10-31T06:20:48;14.80;;;5.80;;
76228;SDS011;65021;53.174;18.160;2023-10-31T06:23:15;13.40;;;6.10;;
76228;SDS011;65021;53.174;18.160;2023-10-31T06:25:41;10.80;;;5.90;;
76228;SDS011;65021;53.174;18.160;2023-10-31T06:28:08;12.80;;;7.30;;
76228;SDS011;65021;53.174;18.160;2023-10-31T06:30:34;11.30;;;5.70;;
76228;SDS011;65021;53.174;18.160;2023-10-31T06:33:01;9.30;;;5.10;;
76228;SDS011;65021;53.174;18.160;2023-10-31T06:35:28;11.00;;;5.10;;
76228;SDS011;65021;53.174;18.160;2023-10-31T06:37:55;16.20;;;6.60;;
76228;SDS011;65021;53.174;18.160;2023-10-31T06:40:24;10.80;;;4.40;;
76228;SDS011;65021;53.174;18.160;2023-10-31T06:42:51;11.90;;;5.20;;
76228;SDS011;65021;53.174;18.160;2023-10-31T06:45:18;12.50;;;5.00;;
76228;SDS011;65021;53.174;18.160;2023-10-31T06:50:13;11.40;;;5.80;;
76228;SDS011;65021;53.174;18.160;2023-10-31T06:52:40;10.30;;;4.70;;
76228;SDS011;65021;53.174;18.160;2023-10-31T06:55:07;9.20;;;4.20;;
76228;SDS011;65021;53.174;18.160;2023-10-31T06:57:34;10.10;;;4.50;;
76228;SDS011;65021;53.174;18.160;2023-10-31T07:00:00;10.30;;;5.20;;
76228;SDS011;65021;53.174;18.160;2023-10-31T07:02:27;8.60;;;4.40;;
76228;SDS011;65021;53.174;18.160;2023-10-31T07:04:54;9.60;;;4.90;;
76228;SDS011;65021;53.174;18.160;2023-10-31T07:07:20;11.30;;;4.70;;
76228;SDS011;65021;53.174;18.160;2023-10-31T07:09:47;12.30;;;5.00;;
76228;SDS011;65021;53.174;18.160;2023-10-31T07:12:14;8.50;;;4.50;;
76228;SDS011;65021;53.174;18.160;2023-10-31T07:14:41;9.40;;;4.90;;
76228;SDS011;65021;53.174;18.160;2023-10-31T07:17:08;8.30;;;4.80;;
76228;SDS011;65021;53.174;18.160;2023-10-31T07:19:35;11.80;;;5.30;;
76228;SDS011;65021;53.174;18.160;2023-10-31T07:22:02;10.80;;;5.70;;
76228;SDS011;65021;53.174;18.160;2023-10-31T07:24:29;11.30;;;5.70;;
76228;SDS011;65021;53.174;18.160;2023-10-31T07:26:55;8.60;;;4.50;;
76228;SDS011;65021;53.174;18.160;2023-10-31T07:29:22;13.50;;;5.40;;
76228;SDS011;65021;53.174;18.160;2023-10-31T07:31:49;9.90;;;5.30;;
76228;SDS011;65021;53.174;18.160;2023-10-31T07:34:15;11.50;;;4.90;;
76228;SDS011;65021;53.174;18.160;2023-10-31T07:36:42;10.40;;;5.30;;
76228;SDS011;65021;53.174;18.160;2023-10-31T07:39:08;8.70;;;4.70;;
76228;SDS011;65021;53.174;18.160;2023-10-31T07:41:44;9.50;;;5.00;;
76228;SDS011;65021;53.174;18.160;2023-10-31T07:44:11;11.30;;;5.20;;
76228;SDS011;65021;53.174;18.160;2023-10-31T07:46:38;11.70;;;4.50;;
76228;SDS011;65021;53.174;18.160;2023-10-31T07:49:04;10.60;;;5.20;;
76228;SDS011;65021;53.174;18.160;2023-10-31T07:51:31;10.30;;;5.90;;
76228;SDS011;65021;53.174;18.160;2023-10-31T07:53:58;12.20;;;5.50;;
76228;SDS011;65021;53.174;18.160;2023-10-31T07:56:25;9.50;;;4.70;;
76228;SDS011;65021;53.174;18.160;2023-10-31T07:58:52;11.20;;;5.30;;
76228;SDS011;65021;53.174;18.160;2023-10-31T08:01:19;12.40;;;5.60;;
76228;SDS011;65021;53.174;18.160;2023-10-31T08:03:46;14.30;;;5.40;;
76228;SDS011;65021;53.174;18.160;2023-10-31T08:06:13;11.70;;;6.40;;
76228;SDS011;65021;53.174;18.160;2023-10-31T08:08:40;14.90;;;7.50;;
76228;SDS011;65021;53.174;18.160;2023-10-31T08:11:07;9.70;;;6.00;;
76228;SDS011;65021;53.174;18.160;2023-10-31T08:13:38;11.20;;;5.50;;
76228;SDS011;65021;53.174;18.160;2023-10-31T08:16:06;11.50;;;5.40;;
76228;SDS011;65021;53.174;18.160;2023-10-31T08:18:35;10.00;;;5.50;;
76228;SDS011;65021;53.174;18.160;2023-10-31T08:21:02;11.20;;;5.10;;
76228;SDS011;65021;53.174;18.160;2023-10-31T08:23:30;9.50;;;5.10;;
76228;SDS011;65021;53.174;18.160;2023-10-31T08:25:56;10.30;;;5.80;;
76228;SDS011;65021;53.174;18.160;2023-10-31T08:28:23;13.20;;;5.80;;
76228;SDS011;65021;53.174;18.160;2023-10-31T08:30:49;12.30;;;5.20;;
76228;SDS011;65021;53.174;18.160;2023-10-31T08:33:16;10.80;;;5.20;;
76228;SDS011;65021;53.174;18.160;2023-10-31T08:35:42;13.00;;;6.40;;
76228;SDS011;65021;53.174;18.160;2023-10-31T08:38:10;14.70;;;6.20;;
76228;SDS011;65021;53.174;18.160;2023-10-31T08:40:36;9.10;;;5.40;;
76228;SDS011;65021;53.174;18.160;2023-10-31T08:43:03;11.40;;;5.70;;
76228;SDS011;65021;53.174;18.160;2023-10-31T08:45:32;13.20;;;5.80;;
76228;SDS011;65021;53.174;18.160;2023-10-31T08:48:00;11.00;;;5.70;;
76228;SDS011;65021;53.174;18.160;2023-10-31T08:50:27;14.90;;;6.80;;
76228;SDS011;65021;53.174;18.160;2023-10-31T08:52:54;11.70;;;5.50;;
76228;SDS011;65021;53.174;18.160;2023-10-31T08:55:20;13.80;;;5.70;;
76228;SDS011;65021;53.174;18.160;2023-10-31T08:57:47;11.50;;;5.30;;
76228;SDS011;65021;53.174;18.160;2023-10-31T09:00:13;13.70;;;6.00;;
76228;SDS011;65021;53.174;18.160;2023-10-31T09:02:40;11.90;;;5.20;;
76228;SDS011;65021;53.174;18.160;2023-10-31T09:05:07;11.10;;;5.80;;
76228;SDS011;65021;53.174;18.160;2023-10-31T09:07:33;13.70;;;6.50;;
76228;SDS011;65021;53.174;18.160;2023-10-31T09:10:00;14.40;;;6.50;;
76228;SDS011;65021;53.174;18.160;2023-10-31T09:12:27;8.60;;;4.90;;
76228;SDS011;65021;53.174;18.160;2023-10-31T09:14:53;10.20;;;5.40;;
76228;SDS011;65021;53.174;18.160;2023-10-31T09:17:20;8.90;;;4.40;;
76228;SDS011;65021;53.174;18.160;2023-10-31T09:19:47;10.50;;;6.10;;
76228;SDS011;65021;53.174;18.160;2023-10-31T09:22:13;9.30;;;5.00;;
76228;SDS011;65021;53.174;18.160;2023-10-31T09:24:40;8.30;;;5.00;;
76228;SDS011;65021;53.174;18.160;2023-10-31T09:27:06;9.60;;;5.10;;
76228;SDS011;65021;53.174;18.160;2023-10-31T09:29:33;11.20;;;5.90;;
76228;SDS011;65021;53.174;18.160;2023-10-31T09:31:59;8.40;;;5.50;;
76228;SDS011;65021;53.174;18.160;2023-10-31T09:34:26;9.00;;;5.80;;
76228;SDS011;65021;53.174;18.160;2023-10-31T09:36:53;10.30;;;5.30;;
76228;SDS011;65021;53.174;18.160;2023-10-31T09:39:19;9.60;;;6.20;;
76228;SDS011;65021;53.174;18.160;2023-10-31T09:41:46;8.80;;;4.70;;
76228;SDS011;65021;53.174;18.160;2023-10-31T09:44:13;8.20;;;4.80;;
76228;SDS011;65021;53.174;18.160;2023-10-31T09:46:40;9.30;;;5.60;;
76228;SDS011;65021;53.174;18.160;2023-10-31T09:49:10;6.20;;;3.70;;
76228;SDS011;65021;53.174;18.160;2023-10-31T09:51:37;10.00;;;4.20;;
76228;SDS011;65021;53.174;18.160;2023-10-31T09:54:04;6.90;;;4.30;;
76228;SDS011;65021;53.174;18.160;2023-10-31T09:56:33;7.00;;;3.90;;
76228;SDS011;65021;53.174;18.160;2023-10-31T09:59:01;6.40;;;3.80;;
76228;SDS011;65021;53.174;18.160;2023-10-31T10:01:29;7.20;;;3.90;;
76228;SDS011;65021;53.174;18.160;2023-10-31T10:03:56;8.50;;;4.50;;
76228;SDS011;65021;53.174;18.160;2023-10-31T10:06:22;6.50;;;4.00;;
76228;SDS011;65021;53.174;18.160;2023-10-31T10:08:49;6.70;;;4.20;;
76228;SDS011;65021;53.174;18.160;2023-10-31T10:11:17;6.00;;;3.70;;
76228;SDS011;65021;53.174;18.160;2023-10-31T10:13:43;6.10;;;4.20;;
76228;SDS011;65021;53.174;18.160;2023-10-31T10:16:10;8.20;;;4.70;;
76228;SDS011;65021;53.174;18.160;2023-10-31T10:18:37;9.00;;;4.60;;
76228;SDS011;65021;53.174;18.160;2023-10-31T10:21:06;6.80;;;4.20;;
76228;SDS011;65021;53.174;18.160;2023-10-31T10:23:34;7.40;;;4.90;;
76228;SDS011;65021;53.174;18.160;2023-10-31T10:26:01;8.00;;;4.60;;
76228;SDS011;65021;53.174;18.160;2023-10-31T10:28:28;7.00;;;4.40;;
76228;SDS011;65021;53.174;18.160;2023-10-31T10:30:59;6.60;;;4.50;;
76228;SDS011;65021;53.174;18.160;2023-10-31T10:33:26;9.30;;;4.50;;
76228;SDS011;65021;53.174;18.160;2023-10-31T10:35:52;7.30;;;4.40;;
76228;SDS011;65021;53.174;18.160;2023-10-31T10:38:21;7.60;;;4.70;;
76228;SDS011;65021;53.174;18.160;2023-10-31T10:40:49;7.90;;;5.20;;
76228;SDS011;65021;53.174;18.160;2023-10-31T10:45:45;8.20;;;4.90;;
76228;SDS011;65021;53.174;18.160;2023-10-31T10:48:15;9.10;;;5.00;;
76228;SDS011;65021;53.174;18.160;2023-10-31T10:50:43;6.50;;;3.40;;
76228;SDS011;65021;53.174;18.160;2023-10-31T10:53:22;11.70;;;5.00;;
76228;SDS011;65021;53.174;18.160;2023-10-31T10:56:08;7.40;;;4.70;;
76228;SDS011;65021;53.174;18.160;2023-10-31T11:03:39;9.10;;;6.00;;
76228;SDS011;65021;53.174;18.160;2023-10-31T11:06:06;7.80;;;5.00;;
76228;SDS011;65021;53.174;18.160;2023-10-31T11:08:33;8.30;;;5.30;;
76228;SDS011;65021;53.174;18.160;2023-10-31T11:11:01;8.20;;;4.00;;
76228;SDS011;65021;53.174;18.160;2023-10-31T11:13:28;11.30;;;6.90;;
76228;SDS011;65021;53.174;18.160;2023-10-31T11:15:56;11.80;;;6.70;;
76228;SDS011;65021;53.174;18.160;2023-10-31T11:18:26;10.70;;;6.20;;
76228;SDS011;65021;53.174;18.160;2023-10-31T11:20:54;9.90;;;6.30;;
76228;SDS011;65021;53.174;18.160;2023-10-31T11:23:21;11.20;;;7.00;;
76228;SDS011;65021;53.174;18.160;2023-10-31T11:25:49;11.60;;;6.70;;
76228;SDS011;65021;53.174;18.160;2023-10-31T11:28:18;10.90;;;6.40;;
76228;SDS011;65021;53.174;18.160;2023-10-31T11:30:47;12.10;;;7.30;;
76228;SDS011;65021;53.174;18.160;2023-10-31T11:33:18;11.10;;;6.90;;
76228;SDS011;65021;53.174;18.160;2023-10-31T11:36:02;11.20;;;7.50;;
76228;SDS011;65021;53.174;18.160;2023-10-31T11:38:31;10.70;;;6.60;;
76228;SDS011;65021;53.174;18.160;2023-10-31T11:41:01;11.00;;;6.50;;
76228;SDS011;65021;53.174;18.160;2023-10-31T11:43:35;12.80;;;7.00;;
76228;SDS011;65021;53.174;18.160;2023-10-31T11:46:03;12.60;;;6.30;;
76228;SDS011;65021;53.174;18.160;2023-10-31T11:48:45;10.50;;;6.90;;
76228;SDS011;65021;53.174;18.160;2023-10-31T11:51:12;9.50;;;6.00;;
76228;SDS011;65021;53.174;18.160;2023-10-31T11:53:39;8.10;;;4.10;;
76228;SDS011;65021;53.174;18.160;2023-10-31T11:56:06;12.50;;;5.60;;
76228;SDS011;65021;53.174;18.160;2023-10-31T11:58:36;8.10;;;4.60;;
76228;SDS011;65021;53.174;18.160;2023-10-31T12:01:03;8.30;;;5.40;;
76228;SDS011;65021;53.174;18.160;2023-10-31T12:06:08;9.70;;;5.20;;
76228;SDS011;65021;53.174;18.160;2023-10-31T12:08:37;8.90;;;4.50;;
76228;SDS011;65021;53.174;18.160;2023-10-31T12:11:06;8.00;;;4.60;;
76228;SDS011;65021;53.174;18.160;2023-10-31T12:13:40;7.20;;;3.90;;
76228;SDS011;65021;53.174;18.160;2023-10-31T12:16:09;8.00;;;3.40;;
76228;SDS011;65021;53.174;18.160;2023-10-31T12:18:37;6.60;;;3.80;;
76228;SDS011;65021;53.174;18.160;2023-10-31T12:21:06;5.90;;;3.30;;
76228;SDS011;65021;53.174;18.160;2023-10-31T12:23:34;6.80;;;2.40;;
76228;SDS011;65021;53.174;18.160;2023-10-31T12:26:01;6.10;;;3.30;;
76228;SDS011;65021;53.174;18.160;2023-10-31T12:28:27;7.00;;;3.00;;
76228;SDS011;65021;53.174;18.160;2023-10-31T12:30:57;4.50;;;2.50;;
76228;SDS011;65021;53.174;18.160;2023-10-31T12:33:27;4.90;;;2.60;;
76228;SDS011;65021;53.174;18.160;2023-10-31T12:35:57;5.70;;;3.10;;
76228;SDS011;65021;53.174;18.160;2023-10-31T12:38:25;5.20;;;2.40;;
76228;SDS011;65021;53.174;18.160;2023-10-31T12:40:52;4.70;;;2.30;;
76228;SDS011;65021;53.174;18.160;2023-10-31T12:43:20;4.00;;;2.00;;
76228;SDS011;65021;53.174;18.160;2023-10-31T12:45:47;4.50;;;2.10;;
76228;SDS011;65021;53.174;18.160;2023-10-31T12:48:14;4.60;;;2.00;;
76228;SDS011;65021;53.174;18.160;2023-10-31T12:50:40;4.30;;;2.20;;
76228;SDS011;65021;53.174;18.160;2023-10-31T12:53:07;4.60;;;2.30;;
76228;SDS011;65021;53.174;18.160;2023-10-31T12:55:38;4.80;;;2.20;;
76228;SDS011;65021;53.174;18.160;2023-10-31T12:58:06;4.10;;;1.60;;
76228;SDS011;65021;53.174;18.160;2023-10-31T13:00:33;4.20;;;2.10;;
76228;SDS011;65021;53.174;18.160;2023-10-31T13:03:02;3.90;;;2.20;;
76228;SDS011;65021;53.174;18.160;2023-10-31T13:05:30;5.70;;;1.90;;
76228;SDS011;65021;53.174;18.160;2023-10-31T13:07:57;4.20;;;2.20;;
76228;SDS011;65021;53.174;18.160;2023-10-31T13:10:27;4.00;;;2.10;;
76228;SDS011;65021;53.174;18.160;2023-10-31T13:12:54;4.30;;;1.70;;
76228;SDS011;65021;53.174;18.160;2023-10-31T13:15:25;4.30;;;2.00;;
76228;SDS011;65021;53.174;18.160;2023-10-31T13:17:51;4.10;;;1.90;;
76228;SDS011;65021;53.174;18.160;2023-10-31T13:20:19;5.20;;;1.60;;
76228;SDS011;65021;53.174;18.160;2023-10-31T13:22:46;3.80;;;1.60;;
76228;SDS011;65021;53.174;18.160;2023-10-31T13:25:14;4.00;;;1.40;;
76228;SDS011;65021;53.174;18.160;2023-10-31T13:27:43;3.50;;;1.40;;
76228;SDS011;65021;53.174;18.160;2023-10-31T13:30:11;4.60;;;1.40;;
76228;SDS011;65021;53.174;18.160;2023-10-31T13:32:38;3.80;;;1.40;;
76228;SDS011;65021;53.174;18.160;2023-10-31T13:35:05;3.40;;;1.20;;
76228;SDS011;65021;53.174;18.160;2023-10-31T13:37:32;2.70;;;1.20;;
76228;SDS011;65021;53.174;18.160;2023-10-31T13:40:01;4.10;;;1.10;;
76228;SDS011;65021;53.174;18.160;2023-10-31T13:42:30;4.20;;;1.60;;
76228;SDS011;65021;53.174;18.160;2023-10-31T13:44:56;4.10;;;2.10;;
76228;SDS011;65021;53.174;18.160;2023-10-31T13:47:23;3.90;;;1.80;;
76228;SDS011;65021;53.174;18.160;2023-10-31T13:49:50;3.20;;;1.40;;
76228;SDS011;65021;53.174;18.160;2023-10-31T13:52:19;3.70;;;1.80;;
76228;SDS011;65021;53.174;18.160;2023-10-31T13:54:46;4.60;;;1.80;;
76228;SDS011;65021;53.174;18.160;2023-10-31T13:57:13;3.70;;;1.70;;
76228;SDS011;65021;53.174;18.160;2023-10-31T13:59:39;4.60;;;1.70;;
76228;SDS011;65021;53.174;18.160;2023-10-31T14:02:06;3.00;;;1.60;;
76228;SDS011;65021;53.174;18.160;2023-10-31T14:04:33;3.70;;;1.70;;
76228;SDS011;65021;53.174;18.160;2023-10-31T14:07:00;3.10;;;1.40;;
76228;SDS011;65021;53.174;18.160;2023-10-31T14:09:27;3.30;;;1.50;;
76228;SDS011;65021;53.174;18.160;2023-10-31T14:11:54;3.30;;;1.20;;
76228;SDS011;65021;53.174;18.160;2023-10-31T14:14:20;4.10;;;1.60;;
76228;SDS011;65021;53.174;18.160;2023-10-31T14:16:47;5.10;;;1.70;;
76228;SDS011;65021;53.174;18.160;2023-10-31T14:19:14;2.30;;;1.10;;
76228;SDS011;65021;53.174;18.160;2023-10-31T14:21:42;5.70;;;1.40;;
76228;SDS011;65021;53.174;18.160;2023-10-31T14:24:08;4.60;;;1.70;;
76228;SDS011;65021;53.174;18.160;2023-10-31T14:26:35;4.70;;;1.60;;
76228;SDS011;65021;53.174;18.160;2023-10-31T14:29:03;6.90;;;2.00;;
76228;SDS011;65021;53.174;18.160;2023-10-31T14:31:30;3.20;;;1.30;;
76228;SDS011;65021;53.174;18.160;2023-10-31T14:33:56;3.00;;;1.30;;
76228;SDS011;65021;53.174;18.160;2023-10-31T14:36:24;3.80;;;1.50;;
76228;SDS011;65021;53.174;18.160;2023-10-31T14:38:50;4.90;;;1.70;;
76228;SDS011;65021;53.174;18.160;2023-10-31T14:41:17;5.30;;;1.70;;